Time;durP1;ratioP1;P1;durP2;ratioP2;P2;SDS_P1;SDS_P2;PMS_P1;PMS_P2;Temp;Humidity;BMP_temperature;BMP_pressure;BME280_temperature;BME280_humidity;BME280_pressure;Samples;Min_cycle;Max_cycle;Signal;HPM_P1;HPM_P2
2024/01/23 00:00:57;;;;;;;3.60;0.90;;;11.60;72.20;;;;;;2264855;55;21535;-67
2024/01/23 00:03:25;;;;;;;5.93;1.40;;;11.60;72.20;;;;;;2264964;55;21022;-68
2024/01/23 00:05:51;;;;;;;2.45;0.80;;;11.60;72.10;;;;;;2264925;55;20954;-68
2024/01/23 00:08:19;;;;;;;3.20;0.88;;;11.60;72.00;;;;;;2263473;55;20978;-68
2024/01/23 00:10:45;;;;;;;4.78;1.10;;;11.60;71.90;;;;;;2264990;55;21007;-68
2024/01/23 00:13:12;;;;;;;6.62;1.10;;;11.60;71.80;;;;;;2456417;54;20993;-68
2024/01/23 00:15:38;;;;;;;2.60;0.70;;;11.60;71.70;;;;;;2264394;55;20935;-68
2024/01/23 00:18:07;;;;;;;3.95;0.95;;;11.60;71.80;;;;;;2264833;55;21449;-67
2024/01/23 00:20:33;;;;;;;4.30;0.90;;;11.60;71.80;;;;;;2265104;55;20978;-68
2024/01/23 00:23:00;;;;;;;4.60;0.90;;;11.50;71.70;;;;;;2264227;55;21085;-67
2024/01/23 00:25:26;;;;;;;5.22;1.05;;;11.50;71.90;;;;;;2265301;55;20935;-67
2024/01/23 00:27:53;;;;;;;3.40;0.77;;;11.50;71.80;;;;;;2264580;55;20943;-67
2024/01/23 00:30:19;;;;;;;4.78;0.75;;;11.50;71.90;;;;;;2264702;55;21014;-67
2024/01/23 00:32:45;;;;;;;6.07;0.75;;;11.40;71.80;;;;;;2265154;55;20962;-67
2024/01/23 00:35:12;;;;;;;5.60;0.80;;;11.40;71.90;;;;;;2493952;54;21299;-68
2024/01/23 00:37:41;;;;;;;3.22;0.82;;;11.50;71.80;;;;;;2494595;54;20998;-68
2024/01/23 00:40:11;;;;;;;3.67;0.98;;;11.40;71.70;;;;;;2266670;55;20978;-68
2024/01/23 00:42:37;;;;;;;6.87;1.33;;;11.40;71.60;;;;;;2266274;55;21299;-68
2024/01/23 00:45:03;;;;;;;4.80;1.10;;;11.40;71.60;;;;;;2494746;54;21002;-68
2024/01/23 00:47:31;;;;;;;3.92;0.80;;;11.40;71.60;;;;;;2495144;54;20967;-68
2024/01/23 00:49:57;;;;;;;3.25;1.02;;;11.40;71.60;;;;;;2266660;55;20946;-67
2024/01/23 00:52:24;;;;;;;3.00;0.85;;;11.40;71.50;;;;;;2265157;55;21086;-67
2024/01/23 00:54:50;;;;;;;3.60;0.62;;;11.40;71.60;;;;;;2264033;55;21527;-68
2024/01/23 00:57:18;;;;;;;4.12;1.02;;;11.30;71.50;;;;;;2265279;55;21007;-67
2024/01/23 00:59:48;;;;;;;4.00;1.05;;;11.30;71.50;;;;;;2265102;55;20975;-67
2024/01/23 01:02:15;;;;;;;4.93;0.93;;;11.30;71.40;;;;;;2264783;55;20990;-68
2024/01/23 01:04:46;;;;;;;3.40;0.90;;;11.30;71.70;;;;;;2265442;55;21016;-68
2024/01/23 01:07:15;;;;;;;5.47;1.10;;;11.30;71.70;;;;;;2258665;55;21022;-68
2024/01/23 01:09:42;;;;;;;4.22;0.90;;;11.30;71.60;;;;;;2493401;54;21038;-66
2024/01/23 01:12:08;;;;;;;3.83;0.60;;;11.30;71.70;;;;;;2483823;54;21833;-67
2024/01/23 01:14:37;;;;;;;3.92;1.05;;;11.30;71.70;;;;;;2254747;55;20995;-67
2024/01/23 01:17:04;;;;;;;5.00;1.60;;;11.30;71.60;;;;;;2257400;56;20944;-67
2024/01/23 01:19:31;;;;;;;5.43;1.42;;;11.20;71.50;;;;;;2493045;54;21327;-67
2024/01/23 01:21:58;;;;;;;16.10;5.05;;;11.20;71.50;;;;;;2257114;55;20959;-68
2024/01/23 01:24:29;;;;;;;16.83;5.10;;;11.20;71.60;;;;;;2264422;55;21435;-67
2024/01/23 01:26:56;;;;;;;30.30;11.12;;;11.20;71.50;;;;;;2263160;55;21086;-67
2024/01/23 01:29:23;;;;;;;16.80;5.93;;;11.20;71.60;;;;;;2263619;55;20950;-68
2024/01/23 01:31:49;;;;;;;8.35;3.20;;;11.20;71.70;;;;;;2235342;57;20931;-68
2024/01/23 01:34:16;;;;;;;7.18;2.37;;;11.20;71.80;;;;;;2494370;54;21356;-67
2024/01/23 01:36:43;;;;;;;5.97;2.08;;;11.20;71.90;;;;;;2264080;55;20978;-67
2024/01/23 01:39:12;;;;;;;9.77;2.28;;;11.20;71.90;;;;;;2492512;54;21234;-68
2024/01/23 01:41:38;;;;;;;5.00;1.40;;;11.20;72.00;;;;;;2481729;54;21007;-68
2024/01/23 01:44:07;;;;;;;5.10;1.40;;;11.20;72.10;;;;;;2492757;54;20935;-68
2024/01/23 01:46:34;;;;;;;5.03;0.93;;;11.30;72.10;;;;;;2265714;55;21050;-67
2024/01/23 01:49:01;;;;;;;3.30;0.90;;;11.20;72.00;;;;;;2265023;55;21426;-68
2024/01/23 01:51:29;;;;;;;2.85;0.88;;;11.30;72.00;;;;;;2491045;54;21025;-68
2024/01/23 01:53:57;;;;;;;4.15;1.00;;;11.30;71.90;;;;;;2480909;54;20943;-67
2024/01/23 01:56:23;;;;;;;3.17;1.30;;;11.30;72.00;;;;;;2264622;55;21463;-67
2024/01/23 01:58:50;;;;;;;4.25;1.02;;;11.30;71.80;;;;;;2264537;55;21006;-67
2024/01/23 02:01:17;;;;;;;5.65;1.10;;;11.30;71.70;;;;;;2264221;55;21078;-66
2024/01/23 02:03:43;;;;;;;3.55;1.00;;;11.30;71.60;;;;;;2265272;55;20994;-68
2024/01/23 02:06:10;;;;;;;3.28;0.80;;;11.20;71.50;;;;;;2271343;55;20956;-67
2024/01/23 02:08:37;;;;;;;3.47;0.93;;;11.20;71.50;;;;;;2264864;55;20994;-67
2024/01/23 02:11:03;;;;;;;4.57;1.05;;;11.20;71.40;;;;;;2264653;55;20989;-67
2024/01/23 02:13:30;;;;;;;4.93;0.95;;;11.20;71.30;;;;;;2264719;55;20999;-67
2024/01/23 02:15:57;;;;;;;4.65;1.00;;;11.10;71.20;;;;;;2264987;55;21014;-67
2024/01/23 02:18:23;;;;;;;5.00;1.83;;;11.10;71.20;;;;;;2264445;55;21789;-67
2024/01/23 02:20:52;;;;;;;5.85;2.15;;;11.10;71.00;;;;;;2264031;55;21456;-67
2024/01/23 02:23:18;;;;;;;7.12;1.70;;;11.10;71.00;;;;;;2264257;55;20995;-68
2024/01/23 02:25:45;;;;;;;6.95;1.60;;;11.10;71.00;;;;;;2265371;55;21019;-67
2024/01/23 02:28:12;;;;;;;3.95;1.02;;;11.00;70.90;;;;;;2494145;54;21055;-67
2024/01/23 02:30:38;;;;;;;5.30;1.25;;;11.00;70.90;;;;;;2494126;54;21495;-68
2024/01/23 02:33:05;;;;;;;3.33;1.00;;;11.00;71.00;;;;;;2264090;55;20967;-67
2024/01/23 02:35:33;;;;;;;4.90;1.02;;;11.00;71.10;;;;;;2264774;55;20970;-67
2024/01/23 02:38:00;;;;;;;2.40;0.93;;;10.90;71.10;;;;;;2264608;55;20963;-67
2024/01/23 02:40:26;;;;;;;2.90;0.98;;;10.90;71.20;;;;;;2264595;55;21074;-67
2024/01/23 02:42:52;;;;;;;5.82;1.02;;;10.90;71.20;;;;;;2493427;54;21011;-67
2024/01/23 02:45:19;;;;;;;4.62;1.15;;;10.90;71.20;;;;;;2264750;55;20967;-67
2024/01/23 02:47:45;;;;;;;4.20;1.00;;;10.80;71.10;;;;;;2264997;55;21002;-67
2024/01/23 02:50:12;;;;;;;3.62;1.02;;;10.80;71.20;;;;;;2257745;55;20993;-67
2024/01/23 02:52:38;;;;;;;4.72;1.10;;;10.80;71.10;;;;;;2264711;55;21048;-67
2024/01/23 02:55:08;;;;;;;3.92;0.68;;;10.80;71.30;;;;;;2264788;55;21081;-68
2024/01/23 02:57:34;;;;;;;3.20;0.77;;;10.80;71.00;;;;;;2264592;55;20959;-67
2024/01/23 03:00:01;;;;;;;4.05;1.00;;;10.70;71.10;;;;;;2481893;54;21758;-67
2024/01/23 03:02:28;;;;;;;4.75;1.05;;;10.80;71.20;;;;;;2493774;54;20958;-67
2024/01/23 03:04:54;;;;;;;2.58;0.88;;;10.70;71.20;;;;;;2264332;55;21564;-67
2024/01/23 03:07:23;;;;;;;4.80;0.90;;;10.70;71.20;;;;;;2492544;54;21452;-67
2024/01/23 03:09:50;;;;;;;3.45;0.80;;;10.70;71.20;;;;;;2494435;54;20939;-67
2024/01/23 03:12:17;;;;;;;3.45;0.80;;;10.70;71.10;;;;;;2263588;55;21362;-67
2024/01/23 03:14:43;;;;;;;4.22;0.90;;;10.60;71.00;;;;;;2265006;55;21026;-67
2024/01/23 03:17:12;;;;;;;4.47;0.98;;;10.70;71.20;;;;;;2261913;55;21821;-68
2024/01/23 03:19:39;;;;;;;2.90;0.80;;;10.60;70.90;;;;;;2477702;55;21411;-67
2024/01/23 03:22:06;;;;;;;4.00;1.05;;;10.60;71.10;;;;;;2261844;55;20934;-69
2024/01/23 03:24:38;;;;;;;6.53;0.80;;;10.60;71.10;;;;;;2494492;54;20950;-67
2024/01/23 03:27:06;;;;;;;;;;;10.60;71.10;;;;;;2242700;57;21789;-66
2024/01/23 03:29:43;;;;;;;3.33;0.82;;;10.60;69.80;;;;;;2264952;55;20470;-67
2024/01/23 03:32:11;;;;;;;2.15;0.60;;;10.60;71.10;;;;;;2264608;55;21322;-67
2024/01/23 03:34:40;;;;;;;3.72;0.80;;;10.50;71.20;;;;;;2493077;54;21007;-67
2024/01/23 03:37:07;;;;;;;4.32;1.00;;;10.60;71.40;;;;;;2263884;55;21421;-67
2024/01/23 03:39:34;;;;;;;3.42;0.70;;;10.50;71.40;;;;;;2265364;55;20987;-67
2024/01/23 03:42:02;;;;;;;3.37;0.90;;;10.60;71.50;;;;;;2264243;55;20919;-66
2024/01/23 03:44:28;;;;;;;7.35;1.15;;;10.50;71.40;;;;;;2264940;55;20978;-67
2024/01/23 03:46:55;;;;;;;5.30;0.93;;;10.40;71.30;;;;;;2265063;55;21444;-67
2024/01/23 03:49:24;;;;;;;3.53;0.80;;;10.60;71.50;;;;;;2493061;54;20938;-67
2024/01/23 03:51:52;;;;;;;4.20;1.20;;;10.60;71.30;;;;;;2257043;56;20952;-67
2024/01/23 03:54:18;;;;;;;3.65;1.00;;;10.50;71.40;;;;;;2494005;54;21030;-67
2024/01/23 03:56:45;;;;;;;5.60;1.20;;;10.50;71.30;;;;;;2268199;55;20945;-67
2024/01/23 03:59:11;;;;;;;4.47;0.77;;;10.60;71.40;;;;;;2253845;55;20950;-67
2024/01/23 04:01:41;;;;;;;4.18;0.82;;;10.50;71.30;;;;;;2494575;54;21070;-67
2024/01/23 04:04:07;;;;;;;4.90;0.98;;;10.50;71.30;;;;;;2264186;55;20983;-67
2024/01/23 04:06:34;;;;;;;3.37;0.85;;;10.50;71.40;;;;;;2494347;54;20919;-67
2024/01/23 04:09:01;;;;;;;5.05;0.80;;;10.60;71.50;;;;;;2264582;55;22123;-68
2024/01/23 04:11:27;;;;;;;4.75;1.00;;;10.60;71.50;;;;;;2264158;55;20998;-67
2024/01/23 04:13:54;;;;;;;5.72;1.00;;;10.60;71.60;;;;;;2493749;54;20947;-66
2024/01/23 04:16:25;;;;;;;3.75;0.80;;;10.60;71.60;;;;;;2493987;54;21435;-67
2024/01/23 04:18:56;;;;;;;4.60;1.00;;;10.60;71.70;;;;;;2264565;55;20963;-68
2024/01/23 04:21:24;;;;;;;6.25;1.33;;;10.60;71.70;;;;;;2493222;54;21101;-67
2024/01/23 04:23:50;;;;;;;5.05;1.00;;;10.60;71.70;;;;;;2494589;54;20947;-67
2024/01/23 04:26:18;;;;;;;5.62;1.10;;;10.60;71.60;;;;;;2493498;54;21642;-67
2024/01/23 04:28:49;;;;;;;7.65;1.40;;;10.60;71.60;;;;;;2494885;54;20962;-68
2024/01/23 04:31:15;;;;;;;4.00;1.20;;;10.70;71.70;;;;;;2493050;54;21456;-68
2024/01/23 04:33:42;;;;;;;4.85;1.23;;;10.70;71.80;;;;;;2493940;54;20930;-66
2024/01/23 04:36:08;;;;;;;5.68;1.40;;;10.70;71.80;;;;;;2493446;54;21002;-67
2024/01/23 04:38:35;;;;;;;6.28;1.42;;;10.70;71.80;;;;;;2494483;54;21453;-67
2024/01/23 04:41:02;;;;;;;6.18;1.27;;;10.70;71.80;;;;;;2263794;55;21075;-66
2024/01/23 04:43:28;;;;;;;7.57;1.30;;;10.70;71.80;;;;;;2264409;55;22220;-67
2024/01/23 04:45:55;;;;;;;7.72;1.80;;;10.70;71.90;;;;;;2264365;55;21028;-66
2024/01/23 04:48:21;;;;;;;6.75;2.55;;;10.70;71.80;;;;;;2483779;54;21894;-67
2024/01/23 04:50:48;;;;;;;7.03;2.10;;;10.80;71.90;;;;;;2266333;55;20962;-67
2024/01/23 04:53:16;;;;;;;6.80;1.90;;;10.70;71.80;;;;;;2264540;55;20946;-66
2024/01/23 04:55:42;;;;;;;7.53;1.87;;;10.80;71.90;;;;;;2492046;54;20961;-67
2024/01/23 04:58:10;;;;;;;4.53;1.40;;;10.80;71.90;;;;;;2255740;55;21019;-67
2024/01/23 05:00:37;;;;;;;9.57;1.70;;;10.80;71.90;;;;;;2494755;54;20955;-67
2024/01/23 05:03:03;;;;;;;5.93;1.45;;;10.90;72.10;;;;;;2494337;54;20951;-66
2024/01/23 05:05:32;;;;;;;6.25;1.23;;;10.90;71.90;;;;;;2266949;55;21003;-67
2024/01/23 05:07:58;;;;;;;5.78;1.70;;;10.90;71.90;;;;;;2482494;54;20968;-66
2024/01/23 05:10:24;;;;;;;6.53;1.25;;;10.90;71.90;;;;;;2264379;55;21101;-67
2024/01/23 05:12:51;;;;;;;7.10;1.20;;;10.90;71.90;;;;;;2263642;55;20987;-67
2024/01/23 05:15:17;;;;;;;4.47;1.10;;;10.90;72.00;;;;;;2264878;55;21882;-67
2024/01/23 05:17:43;;;;;;;5.03;1.02;;;10.90;72.00;;;;;;2495142;54;21374;-67
2024/01/23 05:20:10;;;;;;;4.62;1.50;;;11.00;72.00;;;;;;2264053;55;20975;-67
2024/01/23 05:22:36;;;;;;;6.85;1.42;;;11.00;72.00;;;;;;2264043;55;20970;-67
2024/01/23 05:25:03;;;;;;;8.00;1.37;;;11.00;72.00;;;;;;2265300;55;21022;-67
2024/01/23 05:27:30;;;;;;;5.07;0.95;;;11.00;71.90;;;;;;2264885;55;21452;-67
2024/01/23 05:29:56;;;;;;;6.25;1.20;;;11.00;71.90;;;;;;2265407;55;21033;-67
2024/01/23 05:32:23;;;;;;;8.48;2.00;;;11.00;71.80;;;;;;2264233;55;20949;-67
2024/01/23 05:34:49;;;;;;;5.53;1.33;;;11.00;71.80;;;;;;2494722;54;20995;-67
2024/01/23 05:37:15;;;;;;;7.65;1.30;;;11.00;71.80;;;;;;2493409;54;21326;-66
2024/01/23 05:39:41;;;;;;;4.85;1.10;;;11.00;71.70;;;;;;2494025;54;21435;-67
2024/01/23 05:42:08;;;;;;;6.50;1.10;;;11.10;71.90;;;;;;2492001;54;20986;-67
2024/01/23 05:44:34;;;;;;;4.62;0.95;;;11.10;71.80;;;;;;2483261;54;20967;-67
2024/01/23 05:47:02;;;;;;;4.40;1.10;;;11.10;71.80;;;;;;2264843;55;20969;-67
2024/01/23 05:49:28;;;;;;;6.00;1.08;;;11.10;71.80;;;;;;2264451;55;20999;-67
2024/01/23 05:51:56;;;;;;;5.62;1.58;;;11.10;71.80;;;;;;2264497;55;20998;-67
2024/01/23 05:54:23;;;;;;;6.03;1.52;;;11.10;71.80;;;;;;2493707;54;21417;-67
2024/01/23 05:56:49;;;;;;;4.82;1.30;;;11.10;71.80;;;;;;2264465;55;20943;-66
2024/01/23 05:59:16;;;;;;;6.37;1.50;;;11.10;71.70;;;;;;2493401;54;20994;-67
2024/01/23 06:01:42;;;;;;;5.97;1.30;;;11.10;71.80;;;;;;2264585;55;21101;-67
2024/01/23 06:04:10;;;;;;;5.97;1.23;;;11.10;71.70;;;;;;2264277;55;21017;-67
2024/01/23 06:06:42;;;;;;;7.20;1.42;;;11.20;71.80;;;;;;2264486;55;20975;-66
2024/01/23 06:09:10;;;;;;;7.22;1.37;;;11.20;71.50;;;;;;2264616;55;20974;-66
2024/01/23 06:11:39;;;;;;;4.65;0.90;;;11.10;71.50;;;;;;2265273;55;20978;-67
2024/01/23 06:14:07;;;;;;;7.00;1.40;;;11.20;71.60;;;;;;2263034;55;21002;-66
2024/01/23 06:16:33;;;;;;;4.97;1.40;;;11.20;71.70;;;;;;2264276;55;21584;-67
2024/01/23 06:18:59;;;;;;;7.80;1.33;;;11.20;71.70;;;;;;2493496;54;21014;-67
2024/01/23 06:21:25;;;;;;;7.15;1.80;;;11.20;71.70;;;;;;2267275;55;21026;-67
2024/01/23 06:23:52;;;;;;;12.50;4.68;;;11.20;71.80;;;;;;2255689;56;21027;-67
2024/01/23 06:26:19;;;;;;;11.30;3.95;;;11.20;71.70;;;;;;2489945;54;21039;-67
2024/01/23 06:28:45;;;;;;;12.50;4.40;;;11.20;71.80;;;;;;2264105;55;21475;-68
2024/01/23 06:31:12;;;;;;;10.82;4.00;;;11.20;71.90;;;;;;2263710;55;21030;-67
2024/01/23 06:33:38;;;;;;;10.10;3.20;;;11.20;72.50;;;;;;2264314;55;21019;-68
2024/01/23 06:36:05;;;;;;;6.12;2.22;;;11.20;71.80;;;;;;2494090;54;20947;-68
2024/01/23 06:38:31;;;;;;;5.70;1.80;;;11.30;71.80;;;;;;2493626;54;21390;-67
2024/01/23 06:40:58;;;;;;;7.10;1.37;;;11.20;72.30;;;;;;2265085;55;21028;-67
2024/01/23 06:43:24;;;;;;;4.72;1.20;;;11.20;71.50;;;;;;2263799;55;21083;-66
2024/01/23 06:45:51;;;;;;;3.17;1.10;;;11.20;71.40;;;;;;2264779;55;20919;-67
2024/01/23 06:48:17;;;;;;;6.40;1.52;;;11.20;71.40;;;;;;2264672;55;20946;-66
2024/01/23 06:50:44;;;;;;;5.28;1.20;;;11.20;71.40;;;;;;2265320;55;20970;-67
2024/01/23 06:53:10;;;;;;;6.43;1.52;;;11.20;71.40;;;;;;2494459;54;21844;-67
2024/01/23 06:55:37;;;;;;;9.07;2.62;;;11.20;71.40;;;;;;2494160;54;20978;-67
2024/01/23 06:58:04;;;;;;;7.87;1.95;;;11.10;71.20;;;;;;2258261;56;20955;-66
2024/01/23 07:00:30;;;;;;;6.05;1.77;;;11.10;71.20;;;;;;2254273;55;21038;-66
2024/01/23 07:02:56;;;;;;;8.90;1.48;;;11.20;71.20;;;;;;2265256;55;21807;-67
2024/01/23 07:05:23;;;;;;;4.57;1.27;;;11.10;71.10;;;;;;2493806;54;21006;-67
2024/01/23 07:07:49;;;;;;;7.75;1.42;;;11.10;71.20;;;;;;2265375;55;21571;-68
2024/01/23 07:10:15;;;;;;;4.00;1.00;;;11.10;71.10;;;;;;2494265;54;20955;-67
2024/01/23 07:12:42;;;;;;;4.82;1.10;;;11.10;71.00;;;;;;2264779;55;20974;-66
2024/01/23 07:15:08;;;;;;;5.93;1.05;;;11.00;71.00;;;;;;2264602;55;20970;-67
2024/01/23 07:17:37;;;;;;;6.10;1.25;;;11.00;71.00;;;;;;2494461;54;21813;-67
2024/01/23 07:20:06;;;;;;;8.05;1.75;;;11.00;70.90;;;;;;2494435;54;21504;-67
2024/01/23 07:22:34;;;;;;;6.05;1.60;;;11.00;70.90;;;;;;2494560;54;20955;-67
2024/01/23 07:25:03;;;;;;;4.87;1.60;;;11.00;71.00;;;;;;2265079;55;21451;-67
2024/01/23 07:27:30;;;;;;;6.25;2.20;;;11.00;71.00;;;;;;2494136;54;20978;-67
2024/01/23 07:29:57;;;;;;;5.60;2.28;;;10.90;71.00;;;;;;2264878;55;20922;-66
2024/01/23 07:32:23;;;;;;;8.73;2.30;;;10.90;71.00;;;;;;2266356;55;20994;-67
2024/01/23 07:34:51;;;;;;;7.57;1.67;;;10.90;71.00;;;;;;2494917;54;20959;-67
2024/01/23 07:37:20;;;;;;;7.47;1.50;;;10.90;71.10;;;;;;2494500;54;20899;-68
2024/01/23 07:39:49;;;;;;;5.87;1.75;;;10.90;71.20;;;;;;2265814;55;20943;-67
2024/01/23 07:42:15;;;;;;;5.85;1.20;;;10.90;71.20;;;;;;2264999;55;21006;-67
2024/01/23 07:44:43;;;;;;;3.45;1.00;;;10.80;71.10;;;;;;2265476;55;20919;-68
2024/01/23 07:47:11;;;;;;;3.67;0.90;;;10.80;71.20;;;;;;2494968;54;20938;-66
2024/01/23 07:49:37;;;;;;;8.05;1.70;;;10.80;71.20;;;;;;2264870;55;20998;-67
2024/01/23 07:52:04;;;;;;;7.72;1.70;;;10.80;71.30;;;;;;2264276;55;20974;-66
2024/01/23 07:54:33;;;;;;;6.43;1.90;;;10.80;71.30;;;;;;2264525;55;21026;-68
2024/01/23 07:57:03;;;;;;;5.30;1.60;;;10.80;71.30;;;;;;2493596;54;21383;-69
2024/01/23 07:59:29;;;;;;;7.72;1.70;;;10.80;71.40;;;;;;2264339;55;21254;-68
2024/01/23 08:01:56;;;;;;;6.30;1.40;;;10.80;71.40;;;;;;2495203;54;20946;-68
2024/01/23 08:04:22;;;;;;;5.05;1.15;;;10.80;71.40;;;;;;2488527;54;21688;-66
2024/01/23 08:06:49;;;;;;;3.53;0.82;;;10.80;71.40;;;;;;2255931;56;21520;-69
2024/01/23 08:09:15;;;;;;;6.85;1.40;;;10.80;71.40;;;;;;2493421;54;21026;-68
2024/01/23 08:11:42;;;;;;;8.05;1.42;;;10.80;71.40;;;;;;2265399;55;21011;-68
2024/01/23 08:14:08;;;;;;;6.60;1.35;;;10.80;71.40;;;;;;2494595;54;21459;-66
2024/01/23 08:16:34;;;;;;;7.68;1.48;;;10.70;71.30;;;;;;2264740;55;21001;-67
2024/01/23 08:19:02;;;;;;;5.20;1.60;;;10.80;71.40;;;;;;2265220;55;20962;-67
2024/01/23 08:21:29;;;;;;;6.07;1.42;;;10.80;71.50;;;;;;2264236;55;22044;-67
2024/01/23 08:23:58;;;;;;;8.95;1.85;;;10.80;71.60;;;;;;2495245;54;21390;-68
2024/01/23 08:26:27;;;;;;;10.55;1.92;;;10.80;71.60;;;;;;2266481;55;20977;-67
2024/01/23 08:28:54;;;;;;;6.78;2.00;;;10.80;71.60;;;;;;2494738;54;21055;-67
2024/01/23 08:31:20;;;;;;;9.68;2.00;;;10.80;71.70;;;;;;2485407;54;21009;-67
2024/01/23 08:33:46;;;;;;;10.10;3.25;;;10.80;71.70;;;;;;2260934;55;20975;-66
2024/01/23 08:36:13;;;;;;;12.13;4.07;;;10.80;71.80;;;;;;2265237;55;20991;-68
2024/01/23 08:38:41;;;;;;;13.60;5.03;;;10.80;71.70;;;;;;2264788;55;21933;-66
2024/01/23 08:41:08;;;;;;;11.00;4.20;;;10.80;71.80;;;;;;2267238;55;21060;-67
2024/01/23 08:43:34;;;;;;;13.40;5.25;;;10.90;71.90;;;;;;2264379;55;20955;-67
2024/01/23 08:46:01;;;;;;;9.77;3.70;;;10.90;71.90;;;;;;2265600;55;21530;-67
2024/01/23 08:48:28;;;;;;;10.45;4.62;;;10.90;71.90;;;;;;2256020;55;20938;-67
2024/01/23 08:50:58;;;;;;;11.05;4.87;;;10.90;71.80;;;;;;2238178;57;20956;-66
2024/01/23 08:53:27;;;;;;;11.23;4.03;;;10.90;71.60;;;;;;2494040;54;21014;-67
2024/01/23 08:55:53;;;;;;;7.68;3.12;;;11.00;71.70;;;;;;2495408;54;21447;-66
2024/01/23 08:58:23;;;;;;;14.40;5.37;;;10.90;71.60;;;;;;2495501;54;21762;-67
2024/01/23 09:00:49;;;;;;;10.05;4.10;;;10.90;71.60;;;;;;2495146;54;21028;-66
2024/01/23 09:03:16;;;;;;;11.57;4.53;;;10.90;71.60;;;;;;2262992;55;20999;-67
2024/01/23 09:05:42;;;;;;;10.90;4.45;;;10.90;71.60;;;;;;2492939;54;21787;-68
2024/01/23 09:08:12;;;;;;;9.25;3.58;;;11.00;71.80;;;;;;2264950;55;21273;-67
2024/01/23 09:10:39;;;;;;;8.88;3.90;;;11.00;71.60;;;;;;2264492;55;21508;-67
2024/01/23 09:13:05;;;;;;;9.45;3.22;;;11.00;71.70;;;;;;2493581;54;21187;-67
2024/01/23 09:15:34;;;;;;;5.50;2.17;;;11.00;71.70;;;;;;2258413;55;21267;-67
2024/01/23 09:18:04;;;;;;;6.22;2.17;;;11.00;71.60;;;;;;2262974;55;20942;-67
2024/01/23 09:20:30;;;;;;;6.57;2.20;;;11.00;71.60;;;;;;2263717;55;21050;-67
2024/01/23 09:22:57;;;;;;;6.75;1.85;;;11.00;71.60;;;;;;2263823;55;21029;-67
2024/01/23 09:25:24;;;;;;;7.75;2.47;;;11.00;71.70;;;;;;2263427;55;21003;-68
2024/01/23 09:27:50;;;;;;;6.60;1.83;;;11.00;71.70;;;;;;2493796;54;21034;-66
2024/01/23 09:30:18;;;;;;;9.43;2.20;;;11.00;71.90;;;;;;2493646;54;20983;-67
2024/01/23 09:32:45;;;;;;;6.60;2.00;;;11.00;71.90;;;;;;2264506;55;20986;-67
2024/01/23 09:35:12;;;;;;;9.25;1.40;;;11.00;71.90;;;;;;2493440;54;21074;-67
2024/01/23 09:37:38;;;;;;;5.12;1.10;;;11.00;72.00;;;;;;2263116;55;20994;-67
2024/01/23 09:40:08;;;;;;;6.35;1.25;;;11.10;72.10;;;;;;2494511;54;21902;-67
2024/01/23 09:42:39;;;;;;;6.72;1.40;;;11.10;72.20;;;;;;2266812;55;21015;-68
2024/01/23 09:45:09;;;;;;;7.50;1.80;;;11.10;72.20;;;;;;2264410;55;20998;-67
2024/01/23 09:47:35;;;;;;;4.00;1.17;;;11.20;72.40;;;;;;2263891;55;20975;-68
2024/01/23 09:50:03;;;;;;;6.47;1.35;;;11.20;72.60;;;;;;2264009;55;21006;-67
2024/01/23 09:52:29;;;;;;;5.55;1.30;;;11.20;72.70;;;;;;2264208;55;21130;-67
2024/01/23 09:54:56;;;;;;;5.37;1.05;;;11.30;72.90;;;;;;2263923;55;20981;-66
2024/01/23 09:57:22;;;;;;;5.53;1.60;;;11.30;72.80;;;;;;2264017;55;21007;-67
2024/01/23 09:59:48;;;;;;;6.03;1.50;;;11.30;72.80;;;;;;2264449;55;20982;-67
2024/01/23 10:02:15;;;;;;;6.95;1.62;;;11.40;72.80;;;;;;2264298;55;20967;-67
2024/01/23 10:04:41;;;;;;;7.03;1.80;;;11.40;72.70;;;;;;2483733;54;21020;-67
2024/01/23 10:07:07;;;;;;;4.97;1.52;;;11.40;72.60;;;;;;2489632;54;20975;-68
2024/01/23 10:09:33;;;;;;;7.57;2.08;;;11.50;72.60;;;;;;2253971;56;20975;-67
2024/01/23 10:12:00;;;;;;;6.25;2.30;;;11.50;72.60;;;;;;2263909;55;20998;-67
2024/01/23 10:14:26;;;;;;;5.43;1.77;;;11.60;72.60;;;;;;2264881;55;20934;-67
2024/01/23 10:16:52;;;;;;;6.03;1.90;;;11.60;72.50;;;;;;2264741;55;21453;-68
2024/01/23 10:19:19;;;;;;;7.10;1.48;;;11.60;72.60;;;;;;2482797;54;21008;-67
2024/01/23 10:21:46;;;;;;;5.05;1.50;;;11.60;72.70;;;;;;2491434;54;21054;-67
2024/01/23 10:24:12;;;;;;;8.20;2.05;;;11.60;73.10;;;;;;2262770;56;21279;-67
2024/01/23 10:26:47;;;;;;;6.43;1.70;;;11.70;73.50;;;;;;2254038;55;20942;-67
2024/01/23 10:29:13;;;;;;;6.43;1.20;;;11.70;73.70;;;;;;2254235;56;20998;-68
2024/01/23 10:31:41;;;;;;;5.78;1.40;;;11.80;74.20;;;;;;2493357;54;21010;-68
2024/01/23 10:34:11;;;;;;;3.40;1.30;;;11.90;74.30;;;;;;2266067;55;20945;-67
2024/01/23 10:36:37;;;;;;;6.50;1.45;;;11.90;74.60;;;;;;2259463;55;21932;-68
2024/01/23 10:39:05;;;;;;;4.62;1.42;;;12.00;75.20;;;;;;2262702;55;20922;-67
2024/01/23 10:41:32;;;;;;;5.72;1.50;;;12.10;75.60;;;;;;2493129;54;21497;-67
2024/01/23 10:43:58;;;;;;;6.28;1.50;;;12.20;75.90;;;;;;2264433;55;20978;-68
2024/01/23 10:46:24;;;;;;;5.22;1.65;;;12.30;76.20;;;;;;2264379;55;21028;-68
2024/01/23 10:48:50;;;;;;;6.50;1.60;;;12.50;76.50;;;;;;2493069;54;20970;-67
2024/01/23 10:51:18;;;;;;;7.20;1.40;;;12.60;76.60;;;;;;2264106;55;20990;-67
2024/01/23 10:53:57;;;;;;;6.22;1.40;;;12.70;76.50;;;;;;2263339;55;21823;-67
2024/01/23 10:56:24;;;;;;;6.00;1.37;;;12.80;75.80;;;;;;2264657;55;22062;-67
2024/01/23 10:59:00;;;;;;;6.22;1.85;;;13.00;76.40;;;;;;2264316;55;21006;-67
2024/01/23 11:01:33;;;;;;;4.43;1.37;;;13.10;76.00;;;;;;2264458;55;20988;-68
2024/01/23 11:04:03;;;;;;;8.27;1.27;;;13.20;75.90;;;;;;2486687;54;20943;-68
2024/01/23 11:06:32;;;;;;;5.82;1.42;;;13.30;75.80;;;;;;2264292;55;20990;-68
2024/01/23 11:09:12;;;;;;;8.07;1.35;;;13.40;75.90;;;;;;2264115;55;21056;-67
2024/01/23 11:11:58;;;;;;;4.85;1.20;;;13.50;75.10;;;;;;2493827;54;21014;-68
2024/01/23 11:14:29;;;;;;;7.82;1.20;;;13.60;74.30;;;;;;2494528;54;21830;-67
2024/01/23 11:17:03;;;;;;;7.55;1.12;;;13.60;74.30;;;;;;2264195;55;20966;-68
2024/01/23 11:19:29;;;;;;;5.18;1.60;;;13.70;73.90;;;;;;2493616;54;21027;-69
2024/01/23 11:22:02;;;;;;;8.35;1.35;;;13.70;74.10;;;;;;2264051;55;21038;-68
2024/01/23 11:24:54;;;;;;;7.70;1.25;;;13.80;73.20;;;;;;2264669;55;21086;-67
2024/01/23 11:27:24;;;;;;;6.53;1.40;;;13.80;71.70;;;;;;2494126;54;21475;-67
2024/01/23 11:29:51;;;;;;;7.45;1.52;;;13.80;72.60;;;;;;2263949;55;21034;-67
2024/01/23 11:32:23;;;;;;;7.37;1.77;;;13.80;72.90;;;;;;2493105;54;22009;-69
2024/01/23 11:35:11;;;;;;;5.37;1.60;;;13.80;72.50;;;;;;2256546;56;21054;-67
2024/01/23 11:37:50;;;;;;;4.50;1.37;;;13.80;72.00;;;;;;2487813;54;21026;-67
2024/01/23 11:40:35;;;;;;;8.80;3.35;;;13.80;72.10;;;;;;2263883;55;20955;-67
2024/01/23 11:43:03;;;;;;;6.30;2.12;;;13.80;71.90;;;;;;2263724;55;20946;-68
2024/01/23 11:45:32;;;;;;;9.18;2.03;;;13.80;72.80;;;;;;2262753;55;21037;-67
2024/01/23 11:48:01;;;;;;;9.10;3.50;;;13.80;72.70;;;;;;2491904;54;20994;-68
2024/01/23 11:50:28;;;;;;;12.88;4.65;;;13.80;72.60;;;;;;2263854;55;20982;-67
2024/01/23 11:52:56;;;;;;;18.50;8.10;;;13.90;72.50;;;;;;2493433;54;20951;-68
2024/01/23 11:55:22;;;;;;;14.27;6.05;;;13.90;72.60;;;;;;2493729;54;20955;-67
2024/01/23 11:57:49;;;;;;;10.52;4.03;;;13.90;73.20;;;;;;2263777;55;21014;-68
2024/01/23 12:00:16;;;;;;;7.07;2.87;;;13.90;72.50;;;;;;2483194;54;21189;-69
2024/01/23 12:02:46;;;;;;;6.50;2.30;;;13.90;72.50;;;;;;2263108;55;20974;-67
2024/01/23 12:05:12;;;;;;;8.45;1.90;;;13.90;72.40;;;;;;2493615;54;20963;-67
2024/01/23 12:07:41;;;;;;;6.60;1.90;;;13.90;72.40;;;;;;2492759;54;20954;-67
2024/01/23 12:10:09;;;;;;;6.10;1.65;;;14.00;72.30;;;;;;2262644;55;20955;-67
2024/01/23 12:12:35;;;;;;;6.53;1.67;;;14.00;72.30;;;;;;2493354;54;21431;-68
2024/01/23 12:15:04;;;;;;;7.80;1.83;;;14.00;72.20;;;;;;2264557;55;20987;-68
2024/01/23 12:17:34;;;;;;;4.65;1.23;;;14.00;71.90;;;;;;2264180;55;20954;-67
2024/01/23 12:20:10;;;;;;;7.70;1.50;;;14.00;71.00;;;;;;2263712;55;20970;-67
2024/01/23 12:22:40;;;;;;;6.10;1.40;;;14.00;70.10;;;;;;2258070;55;21847;-67
2024/01/23 12:25:06;;;;;;;6.07;1.60;;;14.00;70.80;;;;;;2262955;55;21045;-66
2024/01/23 12:27:33;;;;;;;7.50;1.60;;;14.00;70.70;;;;;;2263058;55;21114;-68
2024/01/23 12:30:00;;;;;;;5.70;1.33;;;14.00;70.70;;;;;;2263139;55;21535;-67
2024/01/23 12:32:27;;;;;;;8.18;1.60;;;13.90;70.70;;;;;;2264228;55;21782;-66
2024/01/23 12:34:55;;;;;;;7.15;1.25;;;13.90;70.60;;;;;;2263569;55;21014;-67
2024/01/23 12:37:31;;;;;;;4.20;1.37;;;13.90;70.50;;;;;;2264495;55;21038;-66
2024/01/23 12:40:09;;;;;;;4.55;1.27;;;13.90;70.10;;;;;;2493670;54;20966;-67
2024/01/23 12:42:40;;;;;;;7.85;1.12;;;13.90;70.20;;;;;;2264199;55;20971;-67
2024/01/23 12:45:14;;;;;;;5.65;1.17;;;13.80;70.30;;;;;;2264246;55;20946;-66
2024/01/23 12:47:43;;;;;;;3.92;1.10;;;13.90;69.90;;;;;;2493708;54;20983;-67